Time;durP1;ratioP1;P1;durP2;ratioP2;P2;SDS_P1;SDS_P2;PMS_P1;PMS_P2;Temp;Humidity;BMP_temperature;BMP_pressure;BME280_temperature;BME280_humidity;BME280_pressure;Samples;Min_cycle;Max_cycle;Signal;HPM_P1;HPM_P2
2022/05/18 00:02:06;;;;;;;5.10;1.50;;;;;;;14.38;48.25;100927.45;105073;1282;73595;-73
2022/05/18 00:04:35;;;;;;;4.60;1.50;;;;;;;14.39;47.69;100922.80;104959;1282;70607;-73
2022/05/18 00:07:04;;;;;;;3.70;1.30;;;;;;;14.28;47.12;100918.84;104907;1281;69363;-71
2022/05/18 00:09:33;;;;;;;3.00;1.40;;;;;;;14.28;47.93;100929.89;104756;1282;74130;-70
2022/05/18 00:12:04;;;;;;;5.80;1.50;;;;;;;14.23;48.12;100933.50;104768;1282;62057;-70
2022/05/18 00:14:33;;;;;;;1.90;0.90;;;;;;;14.20;47.48;100946.01;104840;1279;62320;-72
2022/05/18 00:17:04;;;;;;;4.50;1.40;;;;;;;14.13;47.81;100946.61;104762;1282;72541;-72
2022/05/18 00:19:33;;;;;;;3.40;1.10;;;;;;;14.09;47.92;100952.30;104820;1279;70865;-72
2022/05/18 00:22:04;;;;;;;4.70;1.20;;;;;;;14.03;47.94;100952.95;104860;1279;70165;-73
2022/05/18 00:24:33;;;;;;;2.80;1.20;;;;;;;14.01;48.34;100954.04;104731;1282;72608;-72
2022/05/18 00:27:03;;;;;;;6.80;1.50;;;;;;;13.94;48.93;100954.62;104729;1282;59743;-73
2022/05/18 00:29:34;;;;;;;6.10;1.30;;;;;;;13.93;48.96;100951.06;104693;1282;59637;-73
2022/05/18 00:32:03;;;;;;;4.80;1.10;;;;;;;13.89;48.54;100952.06;104908;1279;74120;-73
2022/05/18 00:34:32;;;;;;;3.80;1.30;;;;;;;13.85;48.93;100950.50;104862;1279;69628;-72
2022/05/18 00:37:01;;;;;;;3.30;1.30;;;;;;;13.85;49.41;100952.92;105019;1279;69815;-72
2022/05/18 00:39:30;;;;;;;4.90;1.40;;;;;;;13.84;48.93;100955.31;104775;1282;72428;-70
2022/05/18 00:41:59;;;;;;;6.70;1.40;;;;;;;13.80;48.99;100955.75;104971;1279;60784;-71
2022/05/18 00:44:27;;;;;;;6.80;1.10;;;;;;;13.77;48.83;100954.10;104904;1282;60568;-70
2022/05/18 00:46:56;;;;;;;3.90;1.20;;;;;;;13.73;48.11;100961.25;105012;1279;74026;-71
2022/05/18 00:49:50;;;;;;;3.60;1.20;;;;;;;13.69;48.47;100965.08;104961;1279;70572;-72
2022/05/18 00:52:26;;;;;;;4.70;1.30;;;;;;;13.69;47.72;100972.82;105001;1279;70713;-70
2022/05/18 00:54:59;;;;;;;6.20;1.60;;;;;;;13.67;47.01;100978.60;105017;1279;72823;-73
2022/05/18 00:57:38;;;;;;;4.00;1.60;;;;;;;13.63;47.39;100981.69;104806;1282;59720;-73
2022/05/18 01:00:15;;;;;;;5.30;1.70;;;;;;;13.61;45.86;100989.17;104880;1279;61618;-73
2022/05/18 01:02:53;;;;;;;3.70;1.70;;;;;;;13.58;45.14;100997.33;105208;1279;74791;-72
2022/05/18 01:05:28;;;;;;;5.60;1.50;;;;;;;13.55;45.12;101002.95;104955;1279;71775;-73
2022/05/18 01:07:58;;;;;;;7.00;2.30;;;;;;;13.54;43.51;101004.99;105446;1279;70313;-73
2022/05/18 01:10:28;;;;;;;5.40;2.00;;;;;;;13.50;41.87;101006.84;105072;1279;71842;-73
2022/05/18 01:12:59;;;;;;;6.00;1.90;;;;;;;13.46;41.79;101008.39;104918;1282;60298;-73
2022/05/18 01:15:28;;;;;;;5.00;2.00;;;;;;;13.44;40.99;101014.52;105270;1279;60800;-75
2022/05/18 01:17:58;;;;;;;8.20;2.90;;;;;;;13.34;39.58;101027.57;105297;1279;74256;-73
2022/05/18 01:20:35;;;;;;;8.20;2.10;;;;;;;13.25;37.44;101031.73;105185;1279;73475;-73
2022/05/18 01:23:30;;;;;;;5.20;2.00;;;;;;;13.19;36.78;101032.89;105003;1279;70390;-73
2022/05/18 01:26:16;;;;;;;7.10;2.20;;;;;;;13.12;35.70;101034.85;105148;1279;72955;-72
2022/05/18 01:28:57;;;;;;;7.70;2.20;;;;;;;12.99;35.11;101040.39;105088;1279;59757;-71
2022/05/18 01:31:57;;;;;;;10.60;3.50;;;;;;;12.93;35.86;101042.40;105107;1279;59084;-69
2022/05/18 01:34:31;;;;;;;8.50;2.30;;;;;;;12.84;35.18;101046.84;104954;1279;71830;-71
2022/05/18 01:37:00;;;;;;;7.30;2.10;;;;;;;12.79;35.69;101056.30;104987;1279;70549;-71
2022/05/18 01:39:58;;;;;;;6.50;2.30;;;;;;;12.71;35.58;101054.73;104932;1279;69279;-71
2022/05/18 01:42:45;;;;;;;6.90;2.30;;;;;;;12.68;35.28;101058.17;104791;1282;71640;-70
2022/05/18 01:45:14;;;;;;;5.70;2.30;;;;;;;12.69;34.98;101059.30;105034;1279;60626;-72
2022/05/18 01:47:43;;;;;;;7.60;2.50;;;;;;;12.63;34.75;101064.27;105112;1279;60127;-74
2022/05/18 01:50:20;;;;;;;7.30;2.10;;;;;;;12.56;34.96;101069.71;105073;1279;72188;-74
2022/05/18 01:52:48;;;;;;;8.40;2.10;;;;;;;12.52;34.99;101074.00;104999;1279;72498;-73
2022/05/18 01:55:18;;;;;;;7.40;2.20;;;;;;;12.46;35.20;101074.31;105187;1279;70167;-72
2022/05/18 01:57:48;;;;;;;7.80;2.40;;;;;;;12.41;35.71;101085.13;105312;1279;74363;-78
2022/05/18 02:00:17;;;;;;;6.90;1.80;;;;;;;12.38;35.42;101085.75;105355;1279;61280;-73
2022/05/18 02:02:46;;;;;;;7.90;1.90;;;;;;;12.30;35.59;101087.75;105362;1279;61095;-74
2022/05/18 02:05:15;;;;;;;5.40;1.90;;;;;;;12.26;35.90;101089.80;105211;1279;72992;-76
2022/05/18 02:07:44;;;;;;;5.30;1.80;;;;;;;12.19;36.10;101086.41;105112;1279;71635;-73
2022/05/18 02:10:13;;;;;;;6.30;1.70;;;;;;;12.15;35.85;101088.13;105089;1279;68897;-73
2022/05/18 02:12:42;;;;;;;6.80;1.80;;;;;;;12.03;35.49;101092.83;105325;1279;72157;-72
2022/05/18 02:15:11;;;;;;;6.60;1.90;;;;;;;11.96;35.26;101095.27;105419;1277;59735;-71
2022/05/18 02:17:41;;;;;;;4.70;1.40;;;;;;;11.85;35.31;101098.33;105147;1282;59533;-73
2022/05/18 02:20:12;;;;;;;4.90;1.60;;;;;;;11.83;35.49;101099.52;105106;1279;72869;-74
2022/05/18 02:22:41;;;;;;;5.10;1.60;;;;;;;11.77;35.63;101104.62;105017;1279;72460;-72
2022/05/18 02:25:10;;;;;;;8.50;1.60;;;;;;;11.68;35.49;101103.52;104894;1279;70315;-71
2022/05/18 02:27:39;;;;;;;4.70;1.40;;;;;;;11.60;35.55;101103.59;104981;1279;73927;-72
2022/05/18 02:30:09;;;;;;;5.40;1.70;;;;;;;11.56;35.64;101105.24;105121;1279;61782;-72
2022/05/18 02:32:38;;;;;;;5.10;1.50;;;;;;;11.50;35.65;101105.10;105030;1278;61837;-74
2022/05/18 02:35:08;;;;;;;5.70;1.60;;;;;;;11.42;36.06;101110.41;104919;1279;75870;-76
2022/05/18 02:37:37;;;;;;;7.00;1.50;;;;;;;11.41;36.00;101117.62;104974;1279;73405;-73
2022/05/18 02:40:09;;;;;;;6.00;1.30;;;;;;;11.37;36.05;101119.96;104875;1279;70715;-72
2022/05/18 02:42:38;;;;;;;6.10;1.60;;;;;;;11.30;36.56;101117.33;104924;1279;73165;-72
2022/05/18 02:45:08;;;;;;;5.50;1.30;;;;;;;11.26;36.90;101117.30;104997;1279;60830;-72
2022/05/18 02:47:37;;;;;;;6.60;1.50;;;;;;;11.21;37.01;101120.59;105092;1279;60267;-73
2022/05/18 02:50:08;;;;;;;5.90;1.60;;;;;;;11.15;36.91;101128.64;105112;1279;71875;-73
2022/05/18 02:52:38;;;;;;;5.40;1.70;;;;;;;11.05;36.96;101127.20;104911;1279;71586;-73
2022/05/18 02:57:56;;;;;;;4.80;1.30;;;;;;;10.94;37.27;101132.86;105039;1279;72185;-69
2022/05/18 03:00:25;;;;;;;4.40;1.30;;;;;;;10.86;37.41;101146.46;104895;1279;61497;-71
2022/05/18 03:02:55;;;;;;;5.10;1.40;;;;;;;10.73;37.71;101142.25;105010;1279;59732;-73
2022/05/18 03:05:24;;;;;;;7.00;1.30;;;;;;;10.66;38.03;101148.70;104972;1281;72636;-72
2022/05/18 03:07:53;;;;;;;6.40;1.70;;;;;;;10.59;38.18;101162.55;105082;1279;70568;-72
2022/05/18 03:10:22;;;;;;;4.60;1.10;;;;;;;10.51;38.47;101172.27;104976;1282;68132;-72
2022/05/18 03:12:51;;;;;;;5.90;1.40;;;;;;;10.47;38.63;101180.04;104823;1279;71345;-72
2022/05/18 03:15:20;;;;;;;2.90;1.20;;;;;;;10.43;38.90;101189.34;104842;1279;59718;-74
2022/05/18 03:17:50;;;;;;;4.20;1.10;;;;;;;10.37;38.93;101197.35;104919;1279;61282;-74
2022/05/18 03:25:53;;;;;;;3.70;1.30;;;;;;;10.22;39.70;101212.23;105058;1279;69729;-75
2022/05/18 03:28:22;;;;;;;7.10;1.50;;;;;;;10.23;39.74;101216.70;104920;1279;73014;-71
2022/05/18 03:30:51;;;;;;;8.80;3.10;;;;;;;10.16;39.92;101223.03;104878;1282;59716;-74
2022/05/18 03:33:20;;;;;;;2.70;1.40;;;;;;;10.17;40.02;101227.54;104942;1279;60244;-72
2022/05/18 03:35:50;;;;;;;4.70;1.50;;;;;;;10.13;40.25;101227.75;105000;1279;74665;-73
2022/05/18 03:38:20;;;;;;;6.50;1.20;;;;;;;10.05;40.44;101236.58;104972;1279;72323;-72
2022/05/18 03:40:50;;;;;;;4.90;1.40;;;;;;;9.96;40.29;101224.31;105011;1279;69649;-74
2022/05/18 03:43:20;;;;;;;5.60;1.50;;;;;;;10.02;40.63;101246.67;105088;1279;73209;-74
2022/05/18 03:45:49;;;;;;;1.80;1.10;;;;;;;10.00;40.85;101249.27;105213;1279;61832;-74
2022/05/18 03:48:19;;;;;;;6.10;1.70;;;;;;;9.98;41.26;101251.63;105115;1279;61941;-72
2022/05/18 03:50:49;;;;;;;4.20;1.50;;;;;;;9.96;41.51;101259.08;105210;1279;73432;-74
2022/05/18 03:53:18;;;;;;;4.20;1.20;;;;;;;9.95;41.57;101266.29;105136;1279;73320;-71
2022/05/18 03:55:48;;;;;;;5.50;1.50;;;;;;;9.93;41.74;101269.19;104953;1279;68771;-72
2022/05/18 03:58:17;;;;;;;3.50;1.30;;;;;;;9.93;41.62;101265.03;104955;1279;75217;-74
2022/05/18 04:00:49;;;;;;;2.30;1.20;;;;;;;9.89;42.04;101269.59;104849;1279;59822;-72
2022/05/18 04:03:21;;;;;;;3.00;1.30;;;;;;;9.88;42.06;101265.34;105636;1279;60637;-78
2022/05/18 04:05:52;;;;;;;5.00;1.70;;;;;;;9.83;41.98;101265.11;105992;1279;73178;-78
2022/05/18 04:08:21;;;;;;;5.60;1.40;;;;;;;9.87;41.94;101262.40;105713;1279;72945;-80
2022/05/18 04:10:50;;;;;;;2.80;1.10;;;;;;;9.89;42.02;101263.53;106061;1279;68714;-79
2022/05/18 04:13:21;;;;;;;2.50;1.10;;;;;;;9.92;42.18;101261.95;105727;1279;71378;-77
2022/05/18 04:15:55;;;;;;;2.50;1.10;;;;;;;9.94;42.01;101265.30;105891;1279;60604;-78
2022/05/18 04:18:25;;;;;;;4.20;1.50;;;;;;;9.94;42.20;101259.92;105920;1279;59616;-77
2022/05/18 04:20:56;;;;;;;3.50;1.30;;;;;;;10.00;42.12;101267.21;105140;1279;72000;-76
2022/05/18 04:23:24;;;;;;;4.00;1.30;;;;;;;10.01;42.35;101263.31;105649;1279;72448;-77
2022/05/18 04:25:55;;;;;;;3.60;1.40;;;;;;;10.07;42.63;101261.04;105238;1279;71331;-73
2022/05/18 04:28:24;;;;;;;4.30;1.20;;;;;;;10.15;42.81;101263.48;104742;1279;73617;-71
2022/05/18 04:30:53;;;;;;;3.90;1.10;;;;;;;10.28;42.84;101274.05;105099;1279;61657;-70
2022/05/18 04:33:24;;;;;;;6.20;1.30;;;;;;;10.36;42.06;101277.86;105045;1282;62056;-70
2022/05/18 04:35:53;;;;;;;3.60;1.30;;;;;;;10.42;42.61;101279.45;105164;1279;72530;-70
2022/05/18 04:38:23;;;;;;;4.00;1.20;;;;;;;10.49;41.97;101279.13;105109;1279;70559;-69
2022/05/18 04:40:56;;;;;;;4.10;1.20;;;;;;;10.54;42.23;101276.39;105025;1279;70703;-73
2022/05/18 04:43:26;;;;;;;2.40;1.20;;;;;;;10.55;42.04;101273.20;105078;1279;74480;-74
2022/05/18 04:45:55;;;;;;;3.70;1.20;;;;;;;10.62;42.02;101273.96;105069;1279;62386;-73
2022/05/18 04:48:26;;;;;;;5.30;1.30;;;;;;;10.62;40.75;101281.13;105036;1279;59627;-73
2022/05/18 04:50:55;;;;;;;3.20;1.10;;;;;;;10.59;40.96;101275.89;105113;1279;75056;-69
2022/05/18 04:53:24;;;;;;;4.90;1.10;;;;;;;10.67;41.06;101278.71;105025;1282;73501;-70
2022/05/18 04:55:53;;;;;;;6.20;1.10;;;;;;;10.66;40.36;101273.55;105214;1279;70645;-71
2022/05/18 04:58:22;;;;;;;3.80;1.60;;;;;;;10.71;40.67;101285.09;105165;1279;74238;-70
2022/05/18 05:01:04;;;;;;;2.80;1.30;;;;;;;10.75;40.68;101287.09;104927;1279;59876;-70
2022/05/18 05:03:33;;;;;;;2.70;1.10;;;;;;;10.78;40.22;101289.52;104840;1279;59823;-72
2022/05/18 05:06:05;;;;;;;6.50;1.20;;;;;;;10.78;39.94;101278.19;104848;1279;74645;-72
2022/05/18 05:08:35;;;;;;;5.50;1.20;;;;;;;10.76;39.86;101286.16;104739;1280;72970;-72
2022/05/18 05:11:06;;;;;;;4.90;0.90;;;;;;;10.78;39.54;101293.86;104709;1279;68103;-72
2022/05/18 05:13:36;;;;;;;4.00;1.10;;;;;;;10.79;39.78;101295.89;104857;1279;74095;-73
2022/05/18 05:16:11;;;;;;;2.70;1.20;;;;;;;10.85;39.71;101288.86;104819;1279;60434;-72
2022/05/18 05:18:43;;;;;;;3.80;1.30;;;;;;;10.86;39.16;101296.50;104795;1279;59924;-73
2022/05/18 05:21:12;;;;;;;3.60;1.40;;;;;;;10.85;39.40;101305.24;104726;1282;74487;-72
2022/05/18 05:23:41;;;;;;;1.60;0.60;;;;;;;10.86;39.46;101312.88;104768;1279;70338;-77
2022/05/18 05:26:10;;;;;;;3.40;0.90;;;;;;;10.80;39.17;101312.55;105217;1279;68193;-76
2022/05/18 05:28:39;;;;;;;3.70;0.90;;;;;;;10.80;39.29;101323.89;105442;1279;73303;-77
2022/05/18 05:31:11;;;;;;;1.30;0.90;;;;;;;10.69;39.57;101330.15;105618;1279;60784;-78
2022/05/18 05:33:41;;;;;;;5.10;1.20;;;;;;;10.77;39.39;101324.92;105246;1279;59792;-75
2022/05/18 05:36:11;;;;;;;1.10;0.70;;;;;;;10.70;39.52;101328.55;104972;1279;72689;-77
2022/05/18 05:38:40;;;;;;;4.00;1.00;;;;;;;10.67;39.59;101337.57;104957;1279;71568;-75
2022/05/18 05:41:09;;;;;;;2.80;1.00;;;;;;;10.61;39.76;101326.13;104851;1281;70725;-75
2022/05/18 05:43:41;;;;;;;4.00;0.90;;;;;;;10.61;39.83;101337.42;104990;1279;73024;-75
2022/05/18 05:46:15;;;;;;;3.30;1.00;;;;;;;10.62;39.46;101348.37;104965;1279;60585;-76
2022/05/18 05:48:47;;;;;;;2.60;0.90;;;;;;;10.59;39.55;101354.63;104803;1280;61863;-75
2022/05/18 05:51:17;;;;;;;3.70;1.10;;;;;;;10.62;39.86;101360.00;104964;1279;74081;-75
2022/05/18 05:53:47;;;;;;;2.40;1.00;;;;;;;10.56;40.50;101358.14;105056;1279;72369;-77
2022/05/18 05:56:16;;;;;;;4.60;1.20;;;;;;;10.64;40.98;101357.11;104837;1280;71453;-75
2022/05/18 05:58:48;;;;;;;2.50;1.00;;;;;;;10.76;40.99;101361.75;105213;1281;74354;-78
2022/05/18 06:01:18;;;;;;;1.90;0.90;;;;;;;10.86;40.34;101373.86;105641;1279;60504;-77
2022/05/18 06:03:48;;;;;;;2.70;0.90;;;;;;;10.85;40.18;101363.97;105303;1280;61461;-77
2022/05/18 06:06:19;;;;;;;7.70;1.10;;;;;;;10.94;40.38;101372.63;105191;1279;72504;-76
2022/05/18 06:08:49;;;;;;;2.50;1.00;;;;;;;10.99;40.13;101366.77;105013;1282;70555;-75
2022/05/18 06:11:19;;;;;;;2.80;1.00;;;;;;;10.99;40.74;101374.73;105553;1279;69756;-78
2022/05/18 06:13:48;;;;;;;3.50;1.00;;;;;;;11.05;39.59;101385.70;105719;1278;74853;-76
2022/05/18 06:16:16;;;;;;;4.00;1.00;;;;;;;11.01;39.51;101384.90;105051;1282;60535;-77
2022/05/18 06:18:45;;;;;;;3.90;1.10;;;;;;;10.94;40.22;101389.04;105182;1279;61404;-75
2022/05/18 06:21:16;;;;;;;3.40;0.80;;;;;;;11.03;40.33;101384.10;104874;1279;74954;-76
2022/05/18 06:23:45;;;;;;;3.40;0.80;;;;;;;11.14;40.59;101379.90;105219;1279;72013;-77
2022/05/18 06:26:13;;;;;;;1.70;0.60;;;;;;;11.29;39.49;101380.16;105163;1279;70609;-76
2022/05/18 06:28:47;;;;;;;1.60;1.00;;;;;;;11.24;39.72;101390.98;105187;1279;71232;-74
2022/05/18 06:31:16;;;;;;;1.40;0.70;;;;;;;11.32;39.92;101392.54;104771;1279;60062;-75
2022/05/18 06:33:45;;;;;;;3.10;0.80;;;;;;;11.41;40.20;101401.18;106997;1279;59095;-75
2022/05/18 06:36:14;;;;;;;3.10;1.00;;;;;;;11.52;40.60;101389.16;105629;1279;73809;-77
2022/05/18 06:38:43;;;;;;;3.50;1.00;;;;;;;11.54;40.04;101395.80;105535;1279;71201;-77
2022/05/18 06:41:24;;;;;;;10.40;1.10;;;;;;;11.58;39.82;101412.14;105167;1279;71112;-77
2022/05/18 06:44:02;;;;;;;1.70;0.80;;;;;;;11.59;40.33;101409.08;105105;1279;72723;-77
2022/05/18 06:46:36;;;;;;;2.30;1.40;;;;;;;11.66;39.58;101410.16;105060;1279;59951;-77
2022/05/18 06:49:08;;;;;;;1.50;0.60;;;;;;;11.69;39.89;101408.28;105095;1279;60583;-78
2022/05/18 06:51:40;;;;;;;4.20;1.00;;;;;;;11.75;39.57;101431.09;105046;1279;75369;-76
2022/05/18 06:54:11;;;;;;;1.10;0.60;;;;;;;11.65;40.08;101412.72;105392;1279;69637;-77
2022/05/18 06:56:43;;;;;;;2.00;0.70;;;;;;;11.69;40.24;101407.56;105343;1279;68190;-77
2022/05/18 06:59:14;;;;;;;1.30;0.70;;;;;;;11.79;40.02;101423.85;105133;1279;74482;-78
2022/05/18 07:01:43;;;;;;;3.40;0.70;;;;;;;11.83;39.80;101419.76;105042;1280;60151;-76
2022/05/18 07:04:14;;;;;;;2.50;1.00;;;;;;;11.86;40.02;101420.04;105215;1279;60650;-77
2022/05/18 07:06:45;;;;;;;1.80;0.60;;;;;;;12.00;38.97;101417.40;105075;1280;73437;-77
2022/05/18 07:09:19;;;;;;;4.10;0.70;;;;;;;12.26;38.80;101416.66;105220;1279;69819;-76
2022/05/18 07:11:49;;;;;;;2.60;0.80;;;;;;;12.45;38.67;101416.60;105331;1279;68143;-77
2022/05/18 07:14:21;;;;;;;8.10;1.10;;;;;;;12.64;38.71;101421.02;105161;1279;72157;-77
2022/05/18 07:16:51;;;;;;;2.30;0.50;;;;;;;12.83;38.46;101413.41;105138;1282;59701;-77
2022/05/18 07:19:20;;;;;;;3.00;0.70;;;;;;;12.85;37.79;101423.73;105119;1279;61574;-77
2022/05/18 07:21:50;;;;;;;1.20;0.90;;;;;;;12.63;37.60;101415.34;105036;1282;72830;-76
2022/05/18 07:24:19;;;;;;;1.40;0.60;;;;;;;12.46;38.13;101426.66;105204;1280;70887;-78
2022/05/18 07:26:48;;;;;;;2.10;1.50;;;;;;;12.36;37.94;101423.28;105166;1279;68872;-76
2022/05/18 07:29:17;;;;;;;0.80;0.60;;;;;;;12.26;37.83;101430.84;105297;1279;73172;-77
2022/05/18 07:34:35;;;;;;;2.80;0.90;;;;;;;12.35;37.03;101437.38;105562;1279;60509;-77
2022/05/18 07:37:06;;;;;;;2.40;0.70;;;;;;;12.33;37.66;101440.33;105512;1279;73725;-77
2022/05/18 07:39:36;;;;;;;0.80;0.60;;;;;;;12.55;37.71;101441.09;105495;1282;70613;-76
2022/05/18 07:42:07;;;;;;;4.30;1.00;;;;;;;12.71;36.84;101438.53;105445;1282;69882;-76
2022/05/18 07:44:38;;;;;;;1.00;0.60;;;;;;;12.71;36.90;101454.60;105231;1279;74173;-77
2022/05/18 07:47:08;;;;;;;3.00;0.60;;;;;;;12.88;36.45;101460.77;105217;1280;59755;-80
2022/05/18 07:49:42;;;;;;;1.90;0.80;;;;;;;12.90;36.09;101472.19;105369;1279;61958;-80
2022/05/18 07:52:11;;;;;;;1.50;0.70;;;;;;;12.84;35.75;101471.88;105565;1279;71732;-78
2022/05/18 07:54:40;;;;;;;3.50;0.90;;;;;;;12.70;35.57;101483.36;105230;1279;71340;-76
2022/05/18 07:57:09;;;;;;;2.70;0.60;;;;;;;12.65;35.76;101489.33;105404;1279;70848;-77
2022/05/18 07:59:37;;;;;;;2.10;1.00;;;;;;;12.84;36.05;101477.33;105481;1279;73185;-78
2022/05/18 08:02:06;;;;;;;4.00;0.80;;;;;;;13.07;35.52;101474.46;105362;1279;58798;-76
2022/05/18 08:04:35;;;;;;;2.70;1.10;;;;;;;13.15;35.96;101487.72;104543;1280;927567;-78
2022/05/18 08:07:04;;;;;;;1.40;0.60;;;;;;;13.10;36.26;101477.40;105423;1279;74057;-79
2022/05/18 08:15:05;;;;;;;2.10;1.00;;;;;;;13.22;36.35;101493.69;105278;1282;70542;-76
2022/05/18 08:15:10;;;;;;;1.00;0.60;;;;;;;12.92;36.46;101490.91;105315;1279;73149;-75
2022/05/18 08:17:43;;;;;;;2.50;0.80;;;;;;;13.10;36.18;101475.81;105155;1279;61352;-77
2022/05/18 08:20:17;;;;;;;2.60;0.80;;;;;;;12.91;36.19;101489.92;105543;1279;59891;-77
2022/05/18 08:22:46;;;;;;;3.40;0.90;;;;;;;12.94;36.44;101479.75;105441;1279;73988;-80
2022/05/18 08:25:16;;;;;;;5.20;0.70;;;;;;;13.20;36.46;101489.64;105205;1280;71110;-77
2022/05/18 08:27:48;;;;;;;1.10;0.70;;;;;;;13.52;35.54;101483.20;105104;1281;68109;-78
2022/05/18 08:30:21;;;;;;;2.50;1.00;;;;;;;13.40;35.34;101473.70;105081;1282;72193;-79
2022/05/18 08:32:50;;;;;;;;;;;;;;;13.48;35.93;101485.92;105388;1279;59219;-78
2022/05/18 08:35:19;;;;;;;4.60;1.00;;;;;;;13.62;35.11;101488.41;105421;1279;60829;-77
2022/05/18 08:37:49;;;;;;;2.20;0.70;;;;;;;13.46;35.76;101490.63;105230;1279;71938;-76
2022/05/18 08:40:30;;;;;;;3.80;0.60;;;;;;;13.29;36.26;101487.63;105056;1281;72638;-78
2022/05/18 08:43:03;;;;;;;3.20;0.60;;;;;;;13.19;36.57;101490.95;105123;1279;68075;-78
2022/05/18 08:45:37;;;;;;;4.30;0.90;;;;;;;13.14;36.62;101492.19;105197;1279;74433;-79
2022/05/18 08:48:35;;;;;;;3.20;0.80;;;;;;;13.15;36.42;101488.23;105197;1280;60725;-77
2022/05/18 08:51:12;;;;;;;3.40;0.70;;;;;;;13.37;35.76;101490.21;105131;1279;60603;-77
2022/05/18 08:54:36;;;;;;;2.30;1.00;;;;;;;13.30;35.38;101491.60;105143;1279;72511;-78
2022/05/18 08:57:28;;;;;;;3.30;1.20;;;;;;;13.54;35.82;101486.20;105178;1279;70540;-79
2022/05/18 09:00:00;;;;;;;2.30;0.60;;;;;;;13.86;34.60;101491.88;105392;1279;69976;-77
2022/05/18 09:02:34;;;;;;;3.00;0.60;;;;;;;13.72;34.48;101499.39;105360;1279;74343;-77
2022/05/18 09:05:07;;;;;;;4.80;0.80;;;;;;;13.62;35.10;101492.98;105361;1279;61149;-79
2022/05/18 09:08:19;;;;;;;3.00;0.80;;;;;;;13.98;33.80;101498.55;105331;1279;60540;-77
2022/05/18 09:11:14;;;;;;;1.10;0.60;;;;;;;14.09;33.35;101494.71;105350;1279;76148;-78
2022/05/18 09:13:43;;;;;;;1.00;0.50;;;;;;;14.19;33.82;101486.96;105321;1279;71623;-77
2022/05/18 09:16:37;;;;;;;1.60;0.60;;;;;;;14.35;33.82;101494.02;105250;1279;71516;-76
2022/05/18 09:19:31;;;;;;;2.40;0.60;;;;;;;14.25;33.58;101498.11;105267;1279;71691;-77
2022/05/18 09:22:14;;;;;;;1.30;0.70;;;;;;;14.06;34.14;101497.23;105356;1279;59068;-79
2022/05/18 09:24:49;;;;;;;3.90;0.60;;;;;;;14.02;33.91;101495.45;105327;1279;62771;-79
2022/05/18 09:27:48;;;;;;;0.80;0.50;;;;;;;14.18;33.62;101487.11;105364;1279;73734;-79
2022/05/18 09:30:56;;;;;;;4.90;0.80;;;;;;;14.23;34.07;101496.31;105464;1279;72091;-78
2022/05/18 09:34:17;;;;;;;4.20;0.80;;;;;;;14.39;33.71;101489.70;105489;1279;70595;-80
2022/05/18 09:37:20;;;;;;;2.80;0.60;;;;;;;14.41;33.11;101491.77;105140;1282;73367;-78
2022/05/18 09:40:19;;;;;;;1.40;0.60;;;;;;;14.52;33.66;101500.55;105286;1280;61157;-78
2022/05/18 09:43:13;;;;;;;4.90;0.70;;;;;;;14.67;33.29;101491.27;105392;1282;59632;-77
2022/05/18 09:45:47;;;;;;;3.20;0.80;;;;;;;14.84;33.23;101516.21;105411;1282;71875;-77
2022/05/18 09:48:30;;;;;;;3.20;0.50;;;;;;;14.76;33.41;101494.44;105527;1280;70867;-77
2022/05/18 09:50:59;;;;;;;1.70;0.60;;;;;;;14.86;33.41;101503.05;105344;1280;70132;-77
2022/05/18 09:53:28;;;;;;;2.20;0.70;;;;;;;15.08;32.96;101489.96;105245;1279;73842;-79
2022/05/18 09:55:57;;;;;;;2.10;0.70;;;;;;;15.12;32.35;101494.00;105281;1282;59598;-80
2022/05/18 09:58:38;;;;;;;2.30;0.50;;;;;;;14.91;32.61;101506.20;105333;1280;59141;-79
2022/05/18 10:07:31;;;;;;;2.30;0.60;;;;;;;14.44;33.91;101511.59;105300;1280;67986;-76
2022/05/18 10:10:03;;;;;;;;;;;;;;;14.45;33.86;101514.47;105057;1280;74454;-78
2022/05/18 10:13:05;;;;;;;2.20;0.60;;;;;;;14.33;33.91;101516.25;105266;1280;61432;-77
2022/05/18 10:16:20;;;;;;;3.30;0.60;;;;;;;14.12;34.75;101523.23;105291;1280;59470;-77
2022/05/18 10:18:57;;;;;;;0.80;0.60;;;;;;;14.05;34.37;101534.30;105169;1279;73854;-75
2022/05/18 10:21:41;;;;;;;3.70;0.60;;;;;;;13.89;34.82;101531.63;105251;1279;71875;-76
2022/05/18 10:24:45;;;;;;;0.80;0.50;;;;;;;13.83;34.97;101522.27;105208;1280;71668;-77
2022/05/18 10:27:17;;;;;;;0.80;0.70;;;;;;;13.57;35.73;101534.48;105369;1282;71761;-75
2022/05/18 10:30:13;;;;;;;2.30;0.50;;;;;;;13.70;35.83;101547.31;105413;1279;60146;-78
2022/05/18 10:33:03;;;;;;;3.60;0.60;;;;;;;13.77;35.82;101548.02;105395;1279;59659;-78
2022/05/18 10:35:44;;;;;;;1.70;0.70;;;;;;;13.83;35.78;101545.16;105407;1279;71340;-76
2022/05/18 10:38:31;;;;;;;0.60;0.40;;;;;;;13.80;35.84;101553.61;105243;1279;71642;-78
2022/05/18 10:41:02;;;;;;;2.10;0.60;;;;;;;13.67;36.18;101552.98;105306;1279;69835;-76
2022/05/18 10:43:39;;;;;;;1.70;0.50;;;;;;;13.46;36.63;101547.29;105432;1279;71368;-76
2022/05/18 10:46:36;;;;;;;3.00;0.60;;;;;;;13.48;36.94;101555.35;105281;1282;59980;-78
2022/05/18 10:49:26;;;;;;;2.30;0.50;;;;;;;13.36;37.70;101554.84;105325;1279;60660;-78
2022/05/18 10:52:40;;;;;;;2.40;0.60;;;;;;;13.29;38.19;101553.40;105312;1279;72793;-78
2022/05/18 10:55:17;;;;;;;3.30;0.60;;;;;;;13.29;38.24;101557.58;105160;1281;69748;-77
2022/05/18 10:58:24;;;;;;;0.40;0.40;;;;;;;13.31;38.05;101553.30;105397;1281;69289;-79
2022/05/18 11:01:17;;;;;;;1.90;0.60;;;;;;;13.32;38.19;101557.78;105231;1283;73366;-78
2022/05/18 11:04:31;;;;;;;2.50;0.60;;;;;;;13.33;38.34;101564.89;105614;1282;60595;-79
2022/05/18 11:06:59;;;;;;;1.30;0.60;;;;;;;13.43;37.97;101559.39;105529;1282;61188;-78
2022/05/18 11:09:33;;;;;;;1.40;0.50;;;;;;;13.50;38.24;101553.81;105407;1282;73294;-79
2022/05/18 11:12:38;;;;;;;2.10;0.60;;;;;;;13.47;38.35;101553.48;105363;1282;72529;-77
2022/05/18 11:15:41;;;;;;;5.90;0.70;;;;;;;13.61;38.39;101566.52;104959;1282;70176;-77
2022/05/18 11:18:27;;;;;;;2.40;0.60;;;;;;;13.64;38.68;101562.14;105245;1282;72064;-77
2022/05/18 11:21:17;;;;;;;0.90;0.50;;;;;;;13.65;38.65;101563.98;105295;1282;58746;-77
2022/05/18 11:24:17;;;;;;;2.60;0.70;;;;;;;13.52;38.37;101572.45;105309;1282;61469;-77
2022/05/18 11:27:25;;;;;;;1.10;0.50;;;;;;;13.51;38.43;101569.33;105183;1281;72688;-77
2022/05/18 11:30:18;;;;;;;4.20;0.60;;;;;;;13.52;39.05;101571.86;105270;1282;70580;-79
2022/05/18 11:33:16;;;;;;;1.10;0.60;;;;;;;13.62;38.76;101572.41;105251;1282;68939;-77
2022/05/18 11:36:19;;;;;;;4.30;0.60;;;;;;;13.69;38.57;101569.64;105165;1280;73436;-80
2022/05/18 11:39:26;;;;;;;1.70;0.80;;;;;;;13.60;38.44;101571.85;105159;1282;59948;-78
2022/05/18 11:42:21;;;;;;;2.40;0.90;;;;;;;13.71;38.03;101573.13;104890;1282;60604;-77
2022/05/18 11:45:32;;;;;;;2.60;0.60;;;;;;;13.84;37.59;101578.85;105219;1282;71783;-78
2022/05/18 11:48:10;;;;;;;1.10;0.50;;;;;;;13.89;38.09;101577.16;105365;1281;72421;-79
2022/05/18 11:51:07;;;;;;;4.30;0.80;;;;;;;13.93;37.96;101562.97;105220;1282;69417;-77
2022/05/18 11:54:33;;;;;;;2.10;0.70;;;;;;;14.08;37.62;101572.08;105276;1279;73286;-77
2022/05/18 11:57:40;;;;;;;0.70;0.50;;;;;;;14.16;37.77;101564.11;105344;1279;59846;-77
2022/05/18 12:00:52;;;;;;;1.80;0.60;;;;;;;14.09;38.08;101562.48;105393;1279;60711;-81
2022/05/18 12:03:39;;;;;;;3.90;0.90;;;;;;;14.28;37.68;101563.92;105335;1279;75160;-79
2022/05/18 12:06:10;;;;;;;1.40;0.50;;;;;;;14.41;37.75;101570.83;105375;1279;71809;-78
2022/05/18 12:09:22;;;;;;;1.40;0.60;;;;;;;14.60;37.05;101569.75;105546;1279;67961;-79
2022/05/18 12:11:59;;;;;;;1.00;0.60;;;;;;;14.81;36.93;101568.19;105644;1279;73249;-79
2022/05/18 12:15:23;;;;;;;4.60;0.80;;;;;;;15.08;35.89;101580.45;105812;1279;59679;-79
2022/05/18 12:18:07;;;;;;;2.90;0.70;;;;;;;15.24;35.78;101565.89;105854;1279;62331;-77
2022/05/18 12:20:50;;;;;;;6.50;0.60;;;;;;;15.37;35.62;101572.40;105876;1279;73689;-77